x

Port Colborne (45142) Wave Buoy

2:00pm - Sun 21st Sep 2014 All times are CDT. -5 hours from GMT.

  • Sig Wave height 6.6ft
  • Peak Period 6s
  • Wind
    27mph, 31mph gusts
  • Sea Temp 67°f
  • Air Temp 67°f
  • Sea Pressure 1001.9mb
  • Port Colborne
  • Port Colborne

More Historic Weather Station data

Upgrade to MSW Pro to gain access to the past 30 days of data for over 8000 Wavebouys and Weather Stations around the globe.

Join Pro

Comparision Forecast

View Surf forecast
   
Sun 09/21 2:00pm 6.5ft 6s 27 31 mph 1001.9mb 67f 67f
1:00pm 7ft 6s 27 31 mph 1001.5mb 67f 68f
12:00pm 6ft 6s 25 31 mph 1002mb 67f 68f
11:00am 6ft 6s 27 34 mph 1002.1mb 67f 69f
10:00am 5ft 5s 29 36 mph 1001.9mb 67f 70f
9:00am 3.5ft 5s 25 29 mph 1002.1mb 67f 70f
8:00am 3ft 5s 22 27 mph 1001.9mb 67f 70f
7:00am 2.5ft 5s 18 25 mph 1002.7mb 67f 69f
6:00am 2.5ft 5s 13 16 mph 1003.9mb 67f 68f
5:00am 3ft 5s 13 18 mph 1004.8mb 67f 69f
4:00am 3.5ft 5s 13 16 mph 1005.7mb 67f 69f
3:00am 3.5ft 5s 18 25 mph 1006mb 67f 69f
2:00am 4ft 5s 22 31 mph 1006.4mb 67f 70f
1:00am 3.5ft 5s 16 18 mph 1007.5mb 67f 70f
12:00am 4ft 5s 18 20 mph 1007.8mb 67f 71f
Sat 09/20 11:00pm 4ft 5s 25 29 mph 1007.9mb 67f 72f
10:00pm 3.5ft 5s 25 29 mph 1008.9mb 67f 72f
9:00pm 2.5ft 5s 22 27 mph 1009.8mb 67f 72f
8:00pm 2.5ft 5s 18 20 mph 1010.1mb 67f 71f
7:00pm 2.5ft 4s 18 20 mph 1010.2mb 67f 72f
6:00pm 2.5ft 5s 13 16 mph 1010.3mb 67f 71f
5:00pm 2.5ft 4s 13 16 mph 1011.1mb 68f 71f
4:00pm 3ft 5s 13 16 mph 1011.5mb 68f 71f
3:00pm 3ft 5s 11 13 mph 1012mb 67f 70f
2:00pm 3.5ft 6s 16 18 mph 1012.8mb 67f 70f
1:00pm 3.5ft 5s 16 18 mph 1013.3mb 67f 70f
12:00pm 4ft 6s 18 22 mph 1014.2mb 67f 70f
11:00am 4.5ft 6s 20 25 mph 1015.2mb 67f 69f
10:00am 4.5ft 6s 20 25 mph 1016.4mb 67f 68f
9:00am 5ft 6s 20 27 mph 1016.6mb 67f 67f
8:00am 4.5ft 6s 22 27 mph 1016.7mb 67f 67f
7:00am 4.5ft 5s 25 29 mph 1016.7mb 67f 66f
6:00am 4.5ft 6s 25 29 mph 1017.1mb 67f 66f
5:00am 4.5ft 5s 22 27 mph 1016.7mb 67f 66f
4:00am 4.5ft 5s 22 27 mph 1016.6mb 67f 66f
3:00am 4.5ft 5s 25 29 mph 1016.8mb 67f 66f
2:00am 4.5ft 5s 22 29 mph 1017.1mb 67f 66f
1:00am 3.5ft 5s 25 29 mph 1017.4mb 67f 65f
12:00am 3.5ft 4s 25 29 mph 1017.7mb 67f 65f
Fri 09/19 11:00pm 2.5ft 3s 25 31 mph 1017.9mb 67f 65f
10:00pm 1ft 2s 20 25 mph 1018.8mb 67f 66f
9:00pm 0.3ft 2s 13 18 mph 1019mb 67f 65f
8:00pm 0.3ft 2s 11 13 mph 1019.8mb 67f 65f
7:00pm 0.3ft 2s 7 9 mph 1020.4mb 67f 65f
6:00pm 0.3ft 2s 7 9 mph 1021mb 68f 65f
5:00pm 0.3ft 2s 7 9 mph 1021.8mb 68f 64f
4:00pm 0.3ft 2s 7 9 mph 1022.3mb 68f 62f
3:00pm 0.3ft 3s 9 11 mph 1023mb 68f 60f
2:00pm 0.3ft 4s 7 9 mph 1023.6mb 68f 58f
1:00pm 0.3ft 2s 7 9 mph 1024.9mb 68f 56f
12:00pm 0.3ft 2s 7 9 mph 1026mb 67f 55f
11:00am 0.7ft 3s 9 13 mph 1026.3mb 67f 53f
10:00am 1ft 3s 7 11 mph 1026.7mb 66f 51f
9:00am 1.3ft 3s 11 13 mph 1026.4mb 66f 50f
8:00am 1.6ft 3s 13 18 mph 1026.4mb 66f 49f
7:00am 1.3ft 3s 18 20 mph 1025.9mb 66f 49f
6:00am 1.3ft 3s 13 18 mph 1025.5mb 66f 50f
5:00am 1.3ft 3s 11 13 mph 1025.2mb 66f 51f
4:00am 1ft 3s 13 16 mph 1024.8mb 66f 50f
3:00am 1ft 3s 13 18 mph 1024.3mb 66f 53f
2:00am 1ft 3s 13 18 mph 1024.1mb 67f 55f
1:00am 1ft 3s 13 18 mph 1024mb 67f 55f
12:00am 1.3ft 3s 13 16 mph 1023.6mb 67f 55f
Thu 09/18 11:00pm 1ft 3s 13 20 mph 1023.3mb 67f 55f
10:00pm 1ft 3s 13 18 mph 1023.1mb 67f 56f
9:00pm 1ft 3s 11 16 mph 1022.6mb 67f 56f
8:00pm 1ft 3s 13 18 mph 1022.1mb 67f 56f
7:00pm 0.7ft 3s 11 16 mph 1021.4mb 67f 55f
6:00pm 1ft 3s 11 16 mph 1021mb 67f 56f
5:00pm 1ft 3s 11 13 mph 1021mb 67f 56f
4:00pm 1ft 3s 11 13 mph 1020.8mb 67f 56f
3:00pm 1ft 2s 13 18 mph 1020.3mb 68f 56f
2:00pm 1ft 3s 11 16 mph 1020.4mb 67f 56f
1:00pm 1.3ft 3s 13 18 mph 1020.3mb 67f 56f
12:00pm 1.6ft 3s 13 16 mph 1020.1mb 67f 56f
11:00am 1.6ft 3s 18 20 mph 1019.3mb 68f 57f
10:00am 1.3ft 3s 16 18 mph 1018.9mb 68f 58f
9:00am 1.3ft 3s 16 18 mph 1018.4mb 68f 59f
8:00am 1.3ft 4s 16 18 mph 1018.2mb 68f 58f
7:00am 1.3ft 4s 11 13 mph 1017.5mb 67f 60f
6:00am 1.3ft 4s 11 13 mph 1016.9mb 67f 60f
5:00am 1.3ft 4s 7 9 mph 1016.3mb 67f 61f
4:00am 1.6ft 4s 7 9 mph 1015.7mb 67f 61f
3:00am 1.6ft 4s 2 4 mph 1015.2mb 67f 62f
2:00am 1.6ft 4s 9 11 mph 1015.1mb 67f 62f
1:00am 1.6ft 4s 11 13 mph 1015.2mb 67f 62f
12:00am 1.6ft 4s 9
mph
1015mb 67f 64f
Wed 09/17 11:00pm 1.6ft 4s 11 13 mph 1015mb 68f 64f
10:00pm 2ft 5s 11 13 mph 1015mb 68f 64f
9:00pm 2.5ft 4s 11 13 mph 1014.9mb 68f 64f